createdAt,value
2023-05-25T00:00:32.613Z,15.40
2023-05-25T00:04:17.144Z,15.30
2023-05-25T00:08:01.369Z,15.20
2023-05-25T00:11:43.333Z,15.20
2023-05-25T00:15:25.704Z,15.10
2023-05-25T00:19:07.651Z,15.10
2023-05-25T00:22:49.528Z,15.00
2023-05-25T00:26:31.397Z,15.00
2023-05-25T00:30:13.736Z,14.90
2023-05-25T00:33:55.776Z,14.80
2023-05-25T00:37:37.623Z,14.80
2023-05-25T00:41:19.525Z,14.80
2023-05-25T00:45:01.493Z,14.70
2023-05-25T00:48:43.921Z,14.70
2023-05-25T00:52:27.224Z,14.70
2023-05-25T00:56:15.946Z,14.60
2023-05-25T00:59:59.055Z,14.60
2023-05-25T01:03:45.652Z,14.60
2023-05-25T01:07:29.078Z,14.50
2023-05-25T01:11:15.117Z,14.50
2023-05-25T01:14:57.339Z,14.50
2023-05-25T01:18:42.011Z,14.50
2023-05-25T01:22:32.676Z,14.40
2023-05-25T01:26:18.117Z,14.40
2023-05-25T01:30:01.268Z,14.30
2023-05-25T01:33:44.831Z,14.30
2023-05-25T01:37:28.209Z,14.20
2023-05-25T01:41:10.094Z,14.20
2023-05-25T01:44:52.099Z,14.10
2023-05-25T01:48:45.641Z,14.10
2023-05-25T01:52:31.575Z,14.00
2023-05-25T01:56:14.759Z,14.00
2023-05-25T02:00:03.101Z,14.00
2023-05-25T02:03:49.250Z,13.90
2023-05-25T02:07:31.319Z,13.80
2023-05-25T02:11:14.698Z,13.80
2023-05-25T02:14:56.710Z,13.70
2023-05-25T02:18:38.559Z,13.70
2023-05-25T02:22:23.909Z,13.60
2023-05-25T02:26:06.055Z,13.60
2023-05-25T02:29:47.939Z,13.50
2023-05-25T02:33:29.862Z,13.50
2023-05-25T02:37:11.821Z,13.40
2023-05-25T02:40:53.681Z,13.40
2023-05-25T02:44:35.872Z,13.30
2023-05-25T02:48:17.747Z,13.30
2023-05-25T02:51:59.632Z,13.30
2023-05-25T02:55:43.701Z,13.30
2023-05-25T02:59:25.786Z,13.30
2023-05-25T03:03:07.701Z,13.20
2023-05-25T03:06:49.639Z,13.20
2023-05-25T03:10:31.476Z,13.20
2023-05-25T03:14:13.764Z,13.20
2023-05-25T03:18:01.116Z,13.10
2023-05-25T03:21:43.010Z,13.10
2023-05-25T03:25:24.988Z,13.00
2023-05-25T03:29:07.160Z,13.00
2023-05-25T03:32:49.166Z,12.90
2023-05-25T03:36:32.572Z,12.90
2023-05-25T03:40:14.604Z,12.90
2023-05-25T03:43:56.489Z,12.80
2023-05-25T03:47:38.377Z,12.80
2023-05-25T03:51:20.570Z,12.70
2023-05-25T03:55:04.465Z,12.70
2023-05-25T03:58:46.448Z,12.70
2023-05-25T04:02:28.382Z,12.60
2023-05-25T04:06:10.418Z,12.60
2023-05-25T04:09:52.314Z,12.60
2023-05-25T04:13:36.422Z,12.50
2023-05-25T04:17:19.459Z,12.50
2023-05-25T04:21:01.374Z,12.50
2023-05-25T04:24:43.207Z,12.50
2023-05-25T04:28:25.138Z,12.40
2023-05-25T04:32:09.611Z,12.40
2023-05-25T04:35:51.735Z,12.40
2023-05-25T04:39:33.710Z,12.40
2023-05-25T04:43:18.224Z,12.40
2023-05-25T04:47:01.391Z,12.50
2023-05-25T04:50:43.382Z,12.50
2023-05-25T04:54:25.581Z,12.40
2023-05-25T04:58:07.611Z,12.40
2023-05-25T05:01:49.566Z,12.50
2023-05-25T05:05:31.479Z,12.40
2023-05-25T05:09:13.475Z,12.50
2023-05-25T05:12:55.638Z,12.50
2023-05-25T05:16:37.795Z,12.50
2023-05-25T05:20:20.504Z,12.50
2023-05-25T05:24:02.505Z,12.50
2023-05-25T05:27:44.418Z,12.50
2023-05-25T05:31:27.481Z,12.50
2023-05-25T05:35:09.659Z,12.50
2023-05-25T05:38:51.537Z,12.60
2023-05-25T05:42:33.423Z,12.60
2023-05-25T05:46:15.466Z,12.70
2023-05-25T05:49:57.346Z,12.70
2023-05-25T05:53:39.223Z,12.80
2023-05-25T05:57:21.153Z,12.80
2023-05-25T06:01:03.475Z,12.90
2023-05-25T06:04:45.880Z,13.00
2023-05-25T06:08:27.818Z,13.10
2023-05-25T06:12:09.890Z,13.10
2023-05-25T06:15:51.838Z,13.40
2023-05-25T06:19:33.734Z,13.70
2023-05-25T06:23:15.904Z,14.10
2023-05-25T06:26:57.725Z,14.50
2023-05-25T06:30:39.645Z,14.90
2023-05-25T06:34:21.502Z,15.30
2023-05-25T06:38:04.037Z,15.70
2023-05-25T06:41:45.941Z,16.00
2023-05-25T06:45:27.969Z,16.40
2023-05-25T06:49:09.981Z,16.70
2023-05-25T06:52:52.035Z,17.10
2023-05-25T06:56:33.950Z,17.40
2023-05-25T07:00:16.548Z,17.70
2023-05-25T07:03:58.375Z,18.00
2023-05-25T07:07:40.282Z,18.20
2023-05-25T07:11:23.314Z,18.50
2023-05-25T07:15:06.205Z,18.80
2023-05-25T07:18:48.149Z,18.90
2023-05-25T07:22:30.116Z,18.80
2023-05-25T07:26:13.435Z,18.80
2023-05-25T07:29:55.312Z,19.00
2023-05-25T07:33:37.177Z,19.20
2023-05-25T07:37:19.013Z,19.40
2023-05-25T07:41:01.254Z,19.50
2023-05-25T07:44:44.575Z,19.40
2023-05-25T07:48:26.446Z,19.40
2023-05-25T07:52:08.324Z,19.70
2023-05-25T07:55:50.222Z,20.00
2023-05-25T07:59:32.066Z,20.30
2023-05-25T08:03:14.074Z,20.50
2023-05-25T08:06:56.418Z,20.90
2023-05-25T08:10:38.291Z,21.30
2023-05-25T08:14:21.062Z,21.80
2023-05-25T08:18:04.528Z,22.20
2023-05-25T08:21:46.489Z,22.70
2023-05-25T08:25:28.404Z,23.10
2023-05-25T08:29:10.395Z,23.50
2023-05-25T08:32:52.356Z,23.90
2023-05-25T08:36:35.884Z,24.30
2023-05-25T08:40:20.509Z,24.70
2023-05-25T08:44:06.562Z,25.00
2023-05-25T08:47:53.828Z,24.90
2023-05-25T08:51:37.974Z,24.80
2023-05-25T08:55:23.850Z,24.40
2023-05-25T08:59:13.731Z,24.10
2023-05-25T09:03:10.815Z,23.90
2023-05-25T09:10:38.684Z,23.30
2023-05-25T09:14:21.166Z,23.00
2023-05-25T09:18:03.057Z,22.80
2023-05-25T09:21:44.948Z,22.60
2023-05-25T09:25:29.149Z,22.60
2023-05-25T09:29:14.110Z,22.50
2023-05-25T09:32:56.249Z,22.50
2023-05-25T09:36:41.391Z,22.60
2023-05-25T09:40:23.384Z,22.80
2023-05-25T09:44:11.012Z,23.00
2023-05-25T09:47:57.351Z,23.50
2023-05-25T09:51:39.520Z,24.30
2023-05-25T09:55:21.855Z,25.10
2023-05-25T09:59:04.353Z,26.10
2023-05-25T10:02:46.682Z,27.00
2023-05-25T10:06:29.173Z,27.80
2023-05-25T10:10:15.683Z,28.60
2023-05-25T10:14:03.802Z,29.30
2023-05-25T10:17:53.347Z,29.80
2023-05-25T10:21:37.999Z,30.30
2023-05-25T10:25:38.739Z,30.80
2023-05-25T10:29:22.117Z,31.20
2023-05-25T10:33:05.120Z,31.50
2023-05-25T10:36:49.194Z,31.90
2023-05-25T10:40:32.672Z,32.30
2023-05-25T10:44:15.493Z,32.60
2023-05-25T10:47:58.061Z,32.90
2023-05-25T10:51:43.903Z,33.40
2023-05-25T10:55:31.544Z,33.80
2023-05-25T10:59:13.723Z,34.20
2023-05-25T11:02:56.087Z,34.60
2023-05-25T11:06:40.321Z,34.80
2023-05-25T11:10:50.056Z,35.00
2023-05-25T11:14:33.799Z,34.70
2023-05-25T11:18:15.708Z,34.40
2023-05-25T11:22:12.613Z,34.00
2023-05-25T11:26:06.105Z,33.50
2023-05-25T11:29:51.368Z,33.70
2023-05-25T11:33:33.252Z,34.10
2023-05-25T11:37:29.128Z,34.50
2023-05-25T11:41:24.086Z,34.60
2023-05-25T11:45:06.339Z,34.40
2023-05-25T11:48:52.852Z,34.00
2023-05-25T11:52:34.724Z,33.50
2023-05-25T11:56:33.714Z,33.10
2023-05-25T12:00:25.749Z,33.10
2023-05-25T12:04:12.242Z,32.80
2023-05-25T12:07:54.184Z,32.80
2023-05-25T12:11:45.320Z,33.10
2023-05-25T12:15:28.573Z,33.70
2023-05-25T12:19:12.031Z,34.30
2023-05-25T12:22:54.071Z,35.00
2023-05-25T12:26:46.920Z,35.60
2023-05-25T12:30:28.934Z,36.10
2023-05-25T12:34:17.671Z,35.90
2023-05-25T12:38:19.407Z,35.20
2023-05-25T12:42:02.452Z,34.80
2023-05-25T12:45:44.720Z,34.70
2023-05-25T12:49:31.000Z,34.50
2023-05-25T12:53:16.551Z,34.80
2023-05-25T12:56:58.598Z,34.70
2023-05-25T13:00:43.732Z,34.60
2023-05-25T13:04:26.880Z,35.00
2023-05-25T13:08:08.863Z,35.20
2023-05-25T13:11:50.797Z,35.30
2023-05-25T13:15:32.817Z,35.50
2023-05-25T13:19:14.751Z,35.20
2023-05-25T13:22:56.833Z,34.70
2023-05-25T13:26:38.811Z,34.20
2023-05-25T13:30:22.201Z,34.20
2023-05-25T13:34:04.430Z,33.90
2023-05-25T13:37:46.486Z,34.10
2023-05-25T13:41:28.466Z,34.60
2023-05-25T13:45:11.395Z,34.30
2023-05-25T13:48:53.326Z,34.00
2023-05-25T13:52:36.994Z,33.60
2023-05-25T13:56:19.026Z,33.60
2023-05-25T14:00:00.855Z,33.90
2023-05-25T14:03:42.972Z,34.30
2023-05-25T14:07:25.009Z,34.20
2023-05-25T14:11:06.907Z,33.80
2023-05-25T14:14:48.784Z,32.90
2023-05-25T14:18:31.001Z,32.10
2023-05-25T14:22:14.432Z,31.50
2023-05-25T14:25:56.592Z,31.00
2023-05-25T14:29:38.549Z,30.50
2023-05-25T14:33:20.521Z,30.20
2023-05-25T14:37:02.387Z,30.00
2023-05-25T14:40:44.376Z,29.80
2023-05-25T14:44:26.232Z,29.70
2023-05-25T14:48:16.585Z,29.50
2023-05-25T14:51:59.071Z,29.50
2023-05-25T14:55:41.251Z,29.40
2023-05-25T14:59:23.215Z,29.30
2023-05-25T15:03:05.143Z,29.10
2023-05-25T15:06:47.039Z,28.90
2023-05-25T15:10:29.741Z,28.70
2023-05-25T15:14:11.639Z,28.60
2023-05-25T15:17:53.563Z,28.50
2023-05-25T15:21:37.071Z,28.40
2023-05-25T15:25:24.459Z,28.30
2023-05-25T15:29:16.259Z,28.20
2023-05-25T15:32:58.101Z,28.20
2023-05-25T15:36:39.961Z,28.10
2023-05-25T15:40:21.817Z,27.80
2023-05-25T15:44:08.171Z,27.60
2023-05-25T15:47:50.621Z,27.40
2023-05-25T15:51:32.811Z,27.30
2023-05-25T15:55:14.732Z,27.30
2023-05-25T15:58:56.873Z,27.10
2023-05-25T16:02:38.950Z,27.00
2023-05-25T16:06:20.998Z,27.00
2023-05-25T16:10:02.958Z,26.90
2023-05-25T16:13:44.809Z,26.80
2023-05-25T16:17:26.778Z,26.70
2023-05-25T16:21:08.673Z,26.60
2023-05-25T16:24:50.584Z,26.40
2023-05-25T16:28:34.292Z,26.30
2023-05-25T16:32:16.258Z,26.20
2023-05-25T16:35:58.659Z,26.10
2023-05-25T16:39:40.573Z,26.00
2023-05-25T16:43:25.199Z,26.00
2023-05-25T16:47:08.641Z,25.80
2023-05-25T16:50:50.658Z,25.70
2023-05-25T16:54:32.575Z,25.50
2023-05-25T16:58:14.449Z,25.40
2023-05-25T17:01:56.578Z,25.30
2023-05-25T17:05:38.529Z,25.20
2023-05-25T17:09:21.159Z,25.20
2023-05-25T17:13:03.021Z,25.10
2023-05-25T17:16:44.893Z,25.00
2023-05-25T17:20:26.849Z,24.90
2023-05-25T17:24:09.040Z,24.90
2023-05-25T17:27:50.876Z,24.80
2023-05-25T17:31:33.098Z,24.60
2023-05-25T17:35:17.843Z,24.60
2023-05-25T17:38:59.728Z,24.50
2023-05-25T17:42:41.614Z,24.40
2023-05-25T17:46:23.520Z,24.40
2023-05-25T17:50:05.947Z,24.30
2023-05-25T17:53:47.939Z,24.20
2023-05-25T17:57:29.777Z,24.10
2023-05-25T18:01:11.717Z,23.90
2023-05-25T18:04:53.682Z,23.80
2023-05-25T18:08:35.612Z,23.70
2023-05-25T18:12:17.572Z,23.60
2023-05-25T18:15:59.732Z,23.60
2023-05-25T18:19:41.668Z,23.50
2023-05-25T18:23:23.550Z,23.40
2023-05-25T18:27:06.151Z,23.30
2023-05-25T18:30:48.090Z,23.30
2023-05-25T18:34:30.364Z,23.10
2023-05-25T18:38:12.364Z,23.00
2023-05-25T18:41:54.314Z,23.00
2023-05-25T18:45:36.120Z,22.90
2023-05-25T18:49:18.023Z,22.80
2023-05-25T18:52:59.964Z,22.70
2023-05-25T18:56:41.933Z,22.60
2023-05-25T19:00:23.840Z,22.60
2023-05-25T19:04:05.973Z,22.50
2023-05-25T19:11:32.766Z,22.30
2023-05-25T19:15:15.536Z,22.30
2023-05-25T19:18:57.398Z,22.20
2023-05-25T19:22:39.994Z,22.10
2023-05-25T19:26:21.857Z,22.10
2023-05-25T19:30:04.088Z,21.90
2023-05-25T19:33:45.983Z,21.80
2023-05-25T19:37:27.813Z,21.80
2023-05-25T19:41:09.784Z,21.60
2023-05-25T19:44:51.959Z,21.50
2023-05-25T19:48:33.840Z,21.40
2023-05-25T19:52:18.872Z,21.30
2023-05-25T19:56:00.834Z,21.20
2023-05-25T19:59:43.383Z,21.10
2023-05-25T20:03:25.310Z,21.00
2023-05-25T20:07:07.361Z,20.90
2023-05-25T20:10:50.918Z,20.70
2023-05-25T20:14:33.809Z,20.60
2023-05-25T20:18:15.734Z,20.50
2023-05-25T20:21:59.592Z,20.40
2023-05-25T20:25:41.499Z,20.30
2023-05-25T20:29:24.312Z,20.20
2023-05-25T20:33:07.873Z,20.10
2023-05-25T20:36:51.206Z,19.90
2023-05-25T20:40:33.174Z,19.90
2023-05-25T20:44:15.096Z,19.70
2023-05-25T20:48:04.226Z,19.70
2023-05-25T20:51:50.080Z,19.50
2023-05-25T20:55:32.768Z,19.50
2023-05-25T20:59:14.719Z,19.30
2023-05-25T21:02:56.639Z,19.30
2023-05-25T21:06:38.740Z,19.20
2023-05-25T21:10:20.845Z,19.10
2023-05-25T21:14:03.294Z,19.00
2023-05-25T21:17:45.299Z,18.90
2023-05-25T21:21:28.910Z,18.80
2023-05-25T21:25:11.295Z,18.80
2023-05-25T21:28:53.217Z,18.70
2023-05-25T21:32:35.170Z,18.60
2023-05-25T21:36:17.575Z,18.50
2023-05-25T21:39:59.402Z,18.40
2023-05-25T21:43:41.290Z,18.30
2023-05-25T21:47:23.198Z,18.20
2023-05-25T21:51:05.588Z,18.20
2023-05-25T21:54:47.518Z,18.10
2023-05-25T21:58:29.384Z,18.00
2023-05-25T22:02:11.557Z,18.00
2023-05-25T22:05:53.513Z,17.90
2023-05-25T22:09:35.520Z,17.90
2023-05-25T22:13:17.376Z,17.80
2023-05-25T22:16:59.252Z,17.70
2023-05-25T22:20:42.112Z,17.60
2023-05-25T22:24:24.236Z,17.50
2023-05-25T22:28:06.345Z,17.40
2023-05-25T22:31:48.444Z,17.40
2023-05-25T22:35:30.255Z,17.30
2023-05-25T22:39:12.123Z,17.20
2023-05-25T22:42:53.953Z,17.20
2023-05-25T22:46:35.980Z,17.10
2023-05-25T22:50:17.986Z,17.00
2023-05-25T22:53:59.881Z,16.90
2023-05-25T22:57:41.783Z,16.80
2023-05-25T23:01:23.704Z,16.80
2023-05-25T23:05:06.368Z,16.70
2023-05-25T23:08:48.198Z,16.70
2023-05-25T23:12:30.081Z,16.60
2023-05-25T23:16:15.256Z,16.60
2023-05-25T23:19:57.212Z,16.40
2023-05-25T23:23:39.218Z,16.40
2023-05-25T23:27:21.230Z,16.30
2023-05-25T23:31:03.074Z,16.20
2023-05-25T23:34:44.971Z,16.20
2023-05-25T23:38:26.887Z,16.10
2023-05-25T23:42:08.825Z,16.00
2023-05-25T23:45:50.933Z,15.80
2023-05-25T23:49:32.952Z,15.80
2023-05-25T23:53:14.874Z,15.70
2023-05-25T23:56:56.715Z,15.60
